sensor_id;sensor_type;location;lat;lon;timestamp;P1;durP1;ratioP1;P2;durP2;ratioP2
79066;SDS011;68470;50.224;14.348;2023-04-23T00:01:04;19.13;;;10.18;;
79066;SDS011;68470;50.224;14.348;2023-04-23T00:03:37;20.60;;;11.05;;
79066;SDS011;68470;50.224;14.348;2023-04-23T00:06:06;21.05;;;11.10;;
79066;SDS011;68470;50.224;14.348;2023-04-23T00:08:34;24.40;;;12.23;;
79066;SDS011;68470;50.224;14.348;2023-04-23T00:11:05;19.83;;;11.57;;
79066;SDS011;68470;50.224;14.348;2023-04-23T00:13:32;19.02;;;10.88;;
79066;SDS011;68470;50.224;14.348;2023-04-23T00:15:58;17.05;;;9.45;;
79066;SDS011;68470;50.224;14.348;2023-04-23T00:18:25;19.90;;;11.70;;
79066;SDS011;68470;50.224;14.348;2023-04-23T00:20:50;21.40;;;11.45;;
79066;SDS011;68470;50.224;14.348;2023-04-23T00:25:45;35.85;;;14.05;;
79066;SDS011;68470;50.224;14.348;2023-04-23T00:28:11;40.97;;;13.85;;
79066;SDS011;68470;50.224;14.348;2023-04-23T00:30:36;37.78;;;13.70;;
79066;SDS011;68470;50.224;14.348;2023-04-23T00:33:03;34.95;;;15.85;;
79066;SDS011;68470;50.224;14.348;2023-04-23T00:35:34;35.38;;;13.55;;
79066;SDS011;68470;50.224;14.348;2023-04-23T00:38:00;32.20;;;12.68;;
79066;SDS011;68470;50.224;14.348;2023-04-23T00:40:26;29.67;;;12.15;;
79066;SDS011;68470;50.224;14.348;2023-04-23T00:42:52;19.60;;;11.00;;
79066;SDS011;68470;50.224;14.348;2023-04-23T00:45:18;18.63;;;10.45;;
79066;SDS011;68470;50.224;14.348;2023-04-23T00:47:45;21.90;;;10.23;;
79066;SDS011;68470;50.224;14.348;2023-04-23T00:50:11;26.05;;;14.75;;
79066;SDS011;68470;50.224;14.348;2023-04-23T00:52:37;26.85;;;11.30;;
79066;SDS011;68470;50.224;14.348;2023-04-23T00:55:05;24.23;;;12.30;;
79066;SDS011;68470;50.224;14.348;2023-04-23T00:57:33;21.13;;;11.02;;
79066;SDS011;68470;50.224;14.348;2023-04-23T01:00:00;23.73;;;13.45;;
79066;SDS011;68470;50.224;14.348;2023-04-23T01:02:28;21.15;;;10.98;;
79066;SDS011;68470;50.224;14.348;2023-04-23T01:04:56;20.55;;;11.10;;
79066;SDS011;68470;50.224;14.348;2023-04-23T01:07:24;21.52;;;11.55;;
79066;SDS011;68470;50.224;14.348;2023-04-23T01:09:51;21.98;;;11.15;;
79066;SDS011;68470;50.224;14.348;2023-04-23T01:12:17;21.50;;;11.77;;
79066;SDS011;68470;50.224;14.348;2023-04-23T01:14:43;26.77;;;12.55;;
79066;SDS011;68470;50.224;14.348;2023-04-23T01:17:09;19.67;;;11.50;;
79066;SDS011;68470;50.224;14.348;2023-04-23T01:19:36;18.55;;;10.77;;
79066;SDS011;68470;50.224;14.348;2023-04-23T01:22:07;23.90;;;11.40;;
79066;SDS011;68470;50.224;14.348;2023-04-23T01:24:36;21.55;;;11.63;;
79066;SDS011;68470;50.224;14.348;2023-04-23T01:27:02;22.15;;;10.48;;
79066;SDS011;68470;50.224;14.348;2023-04-23T01:29:28;21.13;;;11.70;;
79066;SDS011;68470;50.224;14.348;2023-04-23T01:31:55;24.45;;;12.80;;
79066;SDS011;68470;50.224;14.348;2023-04-23T01:34:22;21.75;;;10.80;;
79066;SDS011;68470;50.224;14.348;2023-04-23T01:36:48;20.77;;;10.60;;
79066;SDS011;68470;50.224;14.348;2023-04-23T01:39:15;20.73;;;10.75;;
79066;SDS011;68470;50.224;14.348;2023-04-23T01:41:42;20.08;;;10.05;;
79066;SDS011;68470;50.224;14.348;2023-04-23T01:44:08;18.67;;;10.25;;
79066;SDS011;68470;50.224;14.348;2023-04-23T01:46:35;19.30;;;10.90;;
79066;SDS011;68470;50.224;14.348;2023-04-23T01:49:01;24.75;;;12.88;;
79066;SDS011;68470;50.224;14.348;2023-04-23T01:51:28;20.10;;;10.63;;
79066;SDS011;68470;50.224;14.348;2023-04-23T01:53:54;23.17;;;12.00;;
79066;SDS011;68470;50.224;14.348;2023-04-23T01:56:21;23.90;;;11.80;;
79066;SDS011;68470;50.224;14.348;2023-04-23T01:58:50;24.50;;;12.57;;
79066;SDS011;68470;50.224;14.348;2023-04-23T02:01:16;21.63;;;12.10;;
79066;SDS011;68470;50.224;14.348;2023-04-23T02:03:42;23.00;;;12.00;;
79066;SDS011;68470;50.224;14.348;2023-04-23T02:06:09;23.92;;;10.80;;
79066;SDS011;68470;50.224;14.348;2023-04-23T02:08:35;19.92;;;10.43;;
79066;SDS011;68470;50.224;14.348;2023-04-23T02:11:04;27.02;;;13.80;;
79066;SDS011;68470;50.224;14.348;2023-04-23T02:13:33;26.38;;;12.80;;
79066;SDS011;68470;50.224;14.348;2023-04-23T02:16:00;21.10;;;11.70;;
79066;SDS011;68470;50.224;14.348;2023-04-23T02:18:26;19.70;;;10.52;;
79066;SDS011;68470;50.224;14.348;2023-04-23T02:20:55;20.10;;;11.30;;
79066;SDS011;68470;50.224;14.348;2023-04-23T02:23:21;20.38;;;10.05;;
79066;SDS011;68470;50.224;14.348;2023-04-23T02:25:48;16.25;;;8.82;;
79066;SDS011;68470;50.224;14.348;2023-04-23T02:28:16;19.45;;;10.02;;
79066;SDS011;68470;50.224;14.348;2023-04-23T02:30:42;16.33;;;10.32;;
79066;SDS011;68470;50.224;14.348;2023-04-23T02:33:11;18.27;;;8.77;;
79066;SDS011;68470;50.224;14.348;2023-04-23T02:35:37;15.48;;;9.70;;
79066;SDS011;68470;50.224;14.348;2023-04-23T02:38:03;17.63;;;9.20;;
79066;SDS011;68470;50.224;14.348;2023-04-23T02:40:29;15.93;;;9.35;;
79066;SDS011;68470;50.224;14.348;2023-04-23T02:42:58;14.70;;;9.52;;
79066;SDS011;68470;50.224;14.348;2023-04-23T02:45:25;15.20;;;9.73;;
79066;SDS011;68470;50.224;14.348;2023-04-23T02:47:50;16.77;;;9.52;;
79066;SDS011;68470;50.224;14.348;2023-04-23T02:50:17;18.95;;;10.48;;
79066;SDS011;68470;50.224;14.348;2023-04-23T02:52:43;18.05;;;9.73;;
79066;SDS011;68470;50.224;14.348;2023-04-23T02:55:14;17.08;;;9.77;;
79066;SDS011;68470;50.224;14.348;2023-04-23T02:57:40;17.15;;;8.68;;
79066;SDS011;68470;50.224;14.348;2023-04-23T03:00:08;14.15;;;8.50;;
79066;SDS011;68470;50.224;14.348;2023-04-23T03:02:35;18.95;;;9.45;;
79066;SDS011;68470;50.224;14.348;2023-04-23T03:05:04;17.45;;;9.95;;
79066;SDS011;68470;50.224;14.348;2023-04-23T03:07:30;14.88;;;7.60;;
79066;SDS011;68470;50.224;14.348;2023-04-23T03:09:57;17.50;;;9.38;;
79066;SDS011;68470;50.224;14.348;2023-04-23T03:12:22;15.45;;;8.23;;
79066;SDS011;68470;50.224;14.348;2023-04-23T03:14:50;15.52;;;8.65;;
79066;SDS011;68470;50.224;14.348;2023-04-23T03:17:16;15.07;;;8.93;;
79066;SDS011;68470;50.224;14.348;2023-04-23T03:19:43;13.70;;;7.63;;
79066;SDS011;68470;50.224;14.348;2023-04-23T03:22:08;19.30;;;9.05;;
79066;SDS011;68470;50.224;14.348;2023-04-23T03:24:35;18.23;;;9.07;;
79066;SDS011;68470;50.224;14.348;2023-04-23T03:27:01;16.50;;;8.82;;
79066;SDS011;68470;50.224;14.348;2023-04-23T03:29:27;17.27;;;9.02;;
79066;SDS011;68470;50.224;14.348;2023-04-23T03:31:52;13.98;;;7.80;;
79066;SDS011;68470;50.224;14.348;2023-04-23T03:34:20;15.02;;;8.23;;
79066;SDS011;68470;50.224;14.348;2023-04-23T03:36:46;15.93;;;8.68;;
79066;SDS011;68470;50.224;14.348;2023-04-23T03:39:13;13.82;;;7.10;;
79066;SDS011;68470;50.224;14.348;2023-04-23T03:41:39;11.43;;;7.13;;
79066;SDS011;68470;50.224;14.348;2023-04-23T03:44:11;13.18;;;8.75;;
79066;SDS011;68470;50.224;14.348;2023-04-23T03:46:39;15.90;;;8.07;;
79066;SDS011;68470;50.224;14.348;2023-04-23T03:49:05;15.13;;;7.93;;
79066;SDS011;68470;50.224;14.348;2023-04-23T03:51:30;15.93;;;8.05;;
79066;SDS011;68470;50.224;14.348;2023-04-23T03:53:56;9.32;;;5.97;;
79066;SDS011;68470;50.224;14.348;2023-04-23T03:56:22;11.25;;;6.30;;
79066;SDS011;68470;50.224;14.348;2023-04-23T03:58:48;11.60;;;8.00;;
79066;SDS011;68470;50.224;14.348;2023-04-23T04:01:13;12.77;;;6.78;;
79066;SDS011;68470;50.224;14.348;2023-04-23T04:03:39;17.23;;;8.65;;
79066;SDS011;68470;50.224;14.348;2023-04-23T04:06:05;20.33;;;8.65;;
79066;SDS011;68470;50.224;14.348;2023-04-23T04:08:32;13.35;;;7.35;;
79066;SDS011;68470;50.224;14.348;2023-04-23T04:10:57;14.38;;;8.23;;
79066;SDS011;68470;50.224;14.348;2023-04-23T04:13:23;13.55;;;8.20;;
79066;SDS011;68470;50.224;14.348;2023-04-23T04:15:49;16.08;;;9.52;;
79066;SDS011;68470;50.224;14.348;2023-04-23T04:18:15;12.65;;;7.50;;
79066;SDS011;68470;50.224;14.348;2023-04-23T04:20:40;6.43;;;4.05;;
79066;SDS011;68470;50.224;14.348;2023-04-23T04:23:08;9.98;;;6.00;;
79066;SDS011;68470;50.224;14.348;2023-04-23T04:25:34;10.70;;;6.50;;
79066;SDS011;68470;50.224;14.348;2023-04-23T04:28:04;11.43;;;6.43;;
79066;SDS011;68470;50.224;14.348;2023-04-23T04:30:36;12.50;;;6.70;;
79066;SDS011;68470;50.224;14.348;2023-04-23T04:33:02;25.25;;;13.82;;
79066;SDS011;68470;50.224;14.348;2023-04-23T04:35:28;18.48;;;9.18;;
79066;SDS011;68470;50.224;14.348;2023-04-23T04:37:54;13.90;;;8.80;;
79066;SDS011;68470;50.224;14.348;2023-04-23T04:40:20;11.18;;;7.78;;
79066;SDS011;68470;50.224;14.348;2023-04-23T04:42:47;17.98;;;8.68;;
79066;SDS011;68470;50.224;14.348;2023-04-23T04:45:12;13.68;;;9.15;;
79066;SDS011;68470;50.224;14.348;2023-04-23T04:47:40;15.48;;;9.50;;
79066;SDS011;68470;50.224;14.348;2023-04-23T04:50:06;15.68;;;9.52;;
79066;SDS011;68470;50.224;14.348;2023-04-23T04:52:33;14.40;;;8.57;;
79066;SDS011;68470;50.224;14.348;2023-04-23T04:54:58;15.85;;;9.13;;
79066;SDS011;68470;50.224;14.348;2023-04-23T04:57:24;18.15;;;11.07;;
79066;SDS011;68470;50.224;14.348;2023-04-23T04:59:50;15.20;;;9.75;;
79066;SDS011;68470;50.224;14.348;2023-04-23T05:02:15;17.35;;;11.35;;
79066;SDS011;68470;50.224;14.348;2023-04-23T05:04:41;19.25;;;11.02;;
79066;SDS011;68470;50.224;14.348;2023-04-23T05:07:07;20.10;;;10.90;;
79066;SDS011;68470;50.224;14.348;2023-04-23T05:09:33;18.65;;;10.50;;
79066;SDS011;68470;50.224;14.348;2023-04-23T05:11:59;15.85;;;10.40;;
79066;SDS011;68470;50.224;14.348;2023-04-23T05:14:25;17.48;;;10.88;;
79066;SDS011;68470;50.224;14.348;2023-04-23T05:16:52;17.65;;;9.63;;
79066;SDS011;68470;50.224;14.348;2023-04-23T05:19:17;16.90;;;9.93;;
79066;SDS011;68470;50.224;14.348;2023-04-23T05:21:43;20.73;;;11.82;;
79066;SDS011;68470;50.224;14.348;2023-04-23T05:24:09;16.77;;;9.98;;
79066;SDS011;68470;50.224;14.348;2023-04-23T05:26:36;15.70;;;8.85;;
79066;SDS011;68470;50.224;14.348;2023-04-23T05:29:02;15.57;;;8.65;;
79066;SDS011;68470;50.224;14.348;2023-04-23T05:31:29;15.93;;;9.10;;
79066;SDS011;68470;50.224;14.348;2023-04-23T05:33:55;17.05;;;8.85;;
79066;SDS011;68470;50.224;14.348;2023-04-23T05:36:21;19.00;;;8.98;;
79066;SDS011;68470;50.224;14.348;2023-04-23T05:38:46;15.98;;;8.85;;
79066;SDS011;68470;50.224;14.348;2023-04-23T05:41:13;16.23;;;9.45;;
79066;SDS011;68470;50.224;14.348;2023-04-23T05:43:39;15.18;;;8.73;;
79066;SDS011;68470;50.224;14.348;2023-04-23T05:46:06;16.00;;;8.27;;
79066;SDS011;68470;50.224;14.348;2023-04-23T05:48:32;14.75;;;8.35;;
79066;SDS011;68470;50.224;14.348;2023-04-23T05:50:58;14.40;;;8.60;;
79066;SDS011;68470;50.224;14.348;2023-04-23T05:53:25;13.90;;;8.82;;
79066;SDS011;68470;50.224;14.348;2023-04-23T05:55:52;17.08;;;9.38;;
79066;SDS011;68470;50.224;14.348;2023-04-23T05:58:17;13.52;;;9.23;;
79066;SDS011;68470;50.224;14.348;2023-04-23T06:00:44;14.65;;;8.45;;
79066;SDS011;68470;50.224;14.348;2023-04-23T06:03:09;15.55;;;8.55;;
79066;SDS011;68470;50.224;14.348;2023-04-23T06:05:35;12.43;;;8.45;;
79066;SDS011;68470;50.224;14.348;2023-04-23T06:08:02;13.60;;;9.23;;
79066;SDS011;68470;50.224;14.348;2023-04-23T06:10:28;14.38;;;8.60;;
79066;SDS011;68470;50.224;14.348;2023-04-23T06:12:54;13.52;;;8.57;;
79066;SDS011;68470;50.224;14.348;2023-04-23T06:15:20;15.18;;;8.85;;
79066;SDS011;68470;50.224;14.348;2023-04-23T06:17:51;14.48;;;8.90;;
79066;SDS011;68470;50.224;14.348;2023-04-23T06:20:17;13.40;;;6.88;;
79066;SDS011;68470;50.224;14.348;2023-04-23T06:22:43;13.18;;;7.68;;
79066;SDS011;68470;50.224;14.348;2023-04-23T06:25:09;16.13;;;7.45;;
79066;SDS011;68470;50.224;14.348;2023-04-23T06:27:35;13.85;;;7.55;;
79066;SDS011;68470;50.224;14.348;2023-04-23T06:30:01;12.13;;;8.05;;
79066;SDS011;68470;50.224;14.348;2023-04-23T06:32:27;12.55;;;7.72;;
79066;SDS011;68470;50.224;14.348;2023-04-23T06:34:53;12.65;;;7.90;;
79066;SDS011;68470;50.224;14.348;2023-04-23T06:37:19;14.40;;;8.57;;
79066;SDS011;68470;50.224;14.348;2023-04-23T06:39:45;13.25;;;8.02;;
79066;SDS011;68470;50.224;14.348;2023-04-23T06:42:11;11.43;;;7.25;;
79066;SDS011;68470;50.224;14.348;2023-04-23T06:44:40;11.13;;;6.85;;
79066;SDS011;68470;50.224;14.348;2023-04-23T06:47:06;14.43;;;8.05;;
79066;SDS011;68470;50.224;14.348;2023-04-23T06:49:32;13.63;;;7.85;;
79066;SDS011;68470;50.224;14.348;2023-04-23T06:51:58;12.98;;;7.75;;
79066;SDS011;68470;50.224;14.348;2023-04-23T06:54:24;12.93;;;7.80;;
79066;SDS011;68470;50.224;14.348;2023-04-23T06:56:50;15.30;;;8.40;;
79066;SDS011;68470;50.224;14.348;2023-04-23T06:59:16;12.32;;;8.10;;
79066;SDS011;68470;50.224;14.348;2023-04-23T07:01:43;15.23;;;8.80;;
79066;SDS011;68470;50.224;14.348;2023-04-23T07:04:09;16.33;;;9.27;;
79066;SDS011;68470;50.224;14.348;2023-04-23T07:06:35;12.70;;;8.15;;
79066;SDS011;68470;50.224;14.348;2023-04-23T07:09:01;13.77;;;7.72;;
79066;SDS011;68470;50.224;14.348;2023-04-23T07:11:30;18.00;;;10.73;;
79066;SDS011;68470;50.224;14.348;2023-04-23T07:16:24;24.67;;;9.40;;
79066;SDS011;68470;50.224;14.348;2023-04-23T07:18:54;18.48;;;8.93;;
79066;SDS011;68470;50.224;14.348;2023-04-23T07:21:20;13.35;;;7.70;;
79066;SDS011;68470;50.224;14.348;2023-04-23T07:23:46;15.13;;;10.05;;
79066;SDS011;68470;50.224;14.348;2023-04-23T07:26:11;13.07;;;8.10;;
79066;SDS011;68470;50.224;14.348;2023-04-23T07:28:37;14.88;;;7.75;;
79066;SDS011;68470;50.224;14.348;2023-04-23T07:31:03;11.93;;;7.68;;
79066;SDS011;68470;50.224;14.348;2023-04-23T07:33:32;14.68;;;8.55;;
79066;SDS011;68470;50.224;14.348;2023-04-23T07:35:58;15.13;;;8.77;;
79066;SDS011;68470;50.224;14.348;2023-04-23T07:38:24;17.33;;;9.70;;
79066;SDS011;68470;50.224;14.348;2023-04-23T07:40:49;20.27;;;12.63;;
79066;SDS011;68470;50.224;14.348;2023-04-23T07:43:15;18.20;;;11.13;;
79066;SDS011;68470;50.224;14.348;2023-04-23T07:45:41;21.23;;;12.18;;
79066;SDS011;68470;50.224;14.348;2023-04-23T07:48:08;19.17;;;11.23;;
79066;SDS011;68470;50.224;14.348;2023-04-23T07:50:34;18.10;;;12.38;;
79066;SDS011;68470;50.224;14.348;2023-04-23T07:53:00;16.85;;;10.20;;
79066;SDS011;68470;50.224;14.348;2023-04-23T07:55:25;16.92;;;9.85;;
79066;SDS011;68470;50.224;14.348;2023-04-23T07:57:51;16.23;;;9.95;;
79066;SDS011;68470;50.224;14.348;2023-04-23T08:00:18;16.42;;;10.20;;
79066;SDS011;68470;50.224;14.348;2023-04-23T08:02:44;15.57;;;9.38;;
79066;SDS011;68470;50.224;14.348;2023-04-23T08:05:10;18.30;;;11.23;;
79066;SDS011;68470;50.224;14.348;2023-04-23T08:07:36;19.48;;;11.30;;
79066;SDS011;68470;50.224;14.348;2023-04-23T08:10:02;13.13;;;8.50;;
79066;SDS011;68470;50.224;14.348;2023-04-23T08:12:34;16.00;;;8.88;;
79066;SDS011;68470;50.224;14.348;2023-04-23T08:15:05;15.90;;;9.90;;
79066;SDS011;68470;50.224;14.348;2023-04-23T08:17:31;15.38;;;9.68;;
79066;SDS011;68470;50.224;14.348;2023-04-23T08:19:57;19.92;;;11.07;;
79066;SDS011;68470;50.224;14.348;2023-04-23T08:22:23;15.23;;;9.45;;
79066;SDS011;68470;50.224;14.348;2023-04-23T08:24:50;19.98;;;12.40;;
79066;SDS011;68470;50.224;14.348;2023-04-23T08:27:16;20.67;;;12.95;;
79066;SDS011;68470;50.224;14.348;2023-04-23T08:29:44;20.42;;;11.32;;
79066;SDS011;68470;50.224;14.348;2023-04-23T08:32:11;15.23;;;11.30;;
79066;SDS011;68470;50.224;14.348;2023-04-23T08:34:37;18.02;;;10.38;;
79066;SDS011;68470;50.224;14.348;2023-04-23T08:37:03;18.38;;;10.25;;
79066;SDS011;68470;50.224;14.348;2023-04-23T08:39:29;16.60;;;9.65;;
79066;SDS011;68470;50.224;14.348;2023-04-23T08:42:00;16.65;;;10.70;;
79066;SDS011;68470;50.224;14.348;2023-04-23T08:44:33;15.20;;;10.30;;
79066;SDS011;68470;50.224;14.348;2023-04-23T08:47:03;16.92;;;10.48;;
79066;SDS011;68470;50.224;14.348;2023-04-23T08:49:32;17.58;;;13.02;;
79066;SDS011;68470;50.224;14.348;2023-04-23T08:52:02;15.85;;;11.05;;
79066;SDS011;68470;50.224;14.348;2023-04-23T08:54:40;15.98;;;9.25;;
79066;SDS011;68470;50.224;14.348;2023-04-23T08:57:07;14.60;;;8.93;;
79066;SDS011;68470;50.224;14.348;2023-04-23T08:59:34;12.32;;;8.07;;
79066;SDS011;68470;50.224;14.348;2023-04-23T09:02:01;13.02;;;7.60;;
79066;SDS011;68470;50.224;14.348;2023-04-23T09:04:32;11.50;;;7.25;;
79066;SDS011;68470;50.224;14.348;2023-04-23T09:07:00;11.85;;;7.72;;
79066;SDS011;68470;50.224;14.348;2023-04-23T09:09:26;13.05;;;7.20;;
79066;SDS011;68470;50.224;14.348;2023-04-23T09:11:54;11.15;;;6.25;;
79066;SDS011;68470;50.224;14.348;2023-04-23T09:14:22;11.25;;;5.68;;
79066;SDS011;68470;50.224;14.348;2023-04-23T09:16:51;9.68;;;4.85;;
79066;SDS011;68470;50.224;14.348;2023-04-23T09:19:18;10.82;;;4.65;;
79066;SDS011;68470;50.224;14.348;2023-04-23T09:21:44;9.82;;;4.45;;
79066;SDS011;68470;50.224;14.348;2023-04-23T09:24:11;5.28;;;3.30;;
79066;SDS011;68470;50.224;14.348;2023-04-23T09:26:44;8.23;;;3.90;;
79066;SDS011;68470;50.224;14.348;2023-04-23T09:29:20;10.10;;;3.13;;
79066;SDS011;68470;50.224;14.348;2023-04-23T09:31:51;7.32;;;4.28;;
79066;SDS011;68470;50.224;14.348;2023-04-23T09:34:22;5.28;;;3.30;;
79066;SDS011;68470;50.224;14.348;2023-04-23T09:36:50;6.68;;;3.80;;
79066;SDS011;68470;50.224;14.348;2023-04-23T09:39:17;5.63;;;4.00;;
79066;SDS011;68470;50.224;14.348;2023-04-23T09:41:44;7.50;;;4.28;;
79066;SDS011;68470;50.224;14.348;2023-04-23T09:44:10;5.82;;;3.53;;
79066;SDS011;68470;50.224;14.348;2023-04-23T09:46:39;7.95;;;3.13;;
79066;SDS011;68470;50.224;14.348;2023-04-23T09:49:07;8.80;;;2.88;;
79066;SDS011;68470;50.224;14.348;2023-04-23T09:51:42;4.78;;;2.53;;
79066;SDS011;68470;50.224;14.348;2023-04-23T09:54:14;4.95;;;3.13;;
79066;SDS011;68470;50.224;14.348;2023-04-23T09:56:43;6.22;;;2.97;;
79066;SDS011;68470;50.224;14.348;2023-04-23T09:59:46;4.63;;;2.97;;
79066;SDS011;68470;50.224;14.348;2023-04-23T10:02:05;4.30;;;2.67;;
79066;SDS011;68470;50.224;14.348;2023-04-23T10:04:32;5.35;;;2.80;;
79066;SDS011;68470;50.224;14.348;2023-04-23T10:07:01;4.90;;;2.95;;
79066;SDS011;68470;50.224;14.348;2023-04-23T10:09:29;4.93;;;2.85;;
79066;SDS011;68470;50.224;14.348;2023-04-23T10:11:57;4.38;;;2.67;;
79066;SDS011;68470;50.224;14.348;2023-04-23T10:14:24;6.22;;;3.45;;
79066;SDS011;68470;50.224;14.348;2023-04-23T10:16:53;4.47;;;2.88;;
79066;SDS011;68470;50.224;14.348;2023-04-23T10:19:23;5.18;;;3.67;;
79066;SDS011;68470;50.224;14.348;2023-04-23T10:21:56;5.20;;;2.83;;
79066;SDS011;68470;50.224;14.348;2023-04-23T10:24:33;4.22;;;2.40;;
79066;SDS011;68470;50.224;14.348;2023-04-23T10:27:02;5.32;;;3.15;;
79066;SDS011;68470;50.224;14.348;2023-04-23T10:29:33;4.53;;;2.72;;
79066;SDS011;68470;50.224;14.348;2023-04-23T10:32:01;5.00;;;2.60;;
79066;SDS011;68470;50.224;14.348;2023-04-23T10:34:29;4.85;;;2.97;;
79066;SDS011;68470;50.224;14.348;2023-04-23T10:36:56;3.25;;;2.30;;
79066;SDS011;68470;50.224;14.348;2023-04-23T10:39:29;4.20;;;2.80;;
79066;SDS011;68470;50.224;14.348;2023-04-23T10:41:58;5.28;;;2.65;;
79066;SDS011;68470;50.224;14.348;2023-04-23T10:44:58;7.93;;;3.45;;
79066;SDS011;68470;50.224;14.348;2023-04-23T10:47:20;5.20;;;2.80;;
79066;SDS011;68470;50.224;14.348;2023-04-23T10:49:47;6.00;;;3.30;;
79066;SDS011;68470;50.224;14.348;2023-04-23T10:52:13;6.47;;;3.38;;
79066;SDS011;68470;50.224;14.348;2023-04-23T10:55:02;6.43;;;2.83;;
79066;SDS011;68470;50.224;14.348;2023-04-23T10:57:27;4.10;;;2.60;;
79066;SDS011;68470;50.224;14.348;2023-04-23T10:59:54;2.95;;;1.98;;
79066;SDS011;68470;50.224;14.348;2023-04-23T11:02:22;4.18;;;2.75;;
79066;SDS011;68470;50.224;14.348;2023-04-23T11:04:58;4.55;;;2.30;;
79066;SDS011;68470;50.224;14.348;2023-04-23T11:07:29;9.13;;;5.63;;
79066;SDS011;68470;50.224;14.348;2023-04-23T11:09:59;4.43;;;2.67;;
79066;SDS011;68470;50.224;14.348;2023-04-23T11:12:37;7.45;;;2.42;;
79066;SDS011;68470;50.224;14.348;2023-04-23T11:15:10;5.53;;;2.55;;
79066;SDS011;68470;50.224;14.348;2023-04-23T11:20:05;6.50;;;2.80;;
79066;SDS011;68470;50.224;14.348;2023-04-23T11:22:45;3.97;;;2.22;;
79066;SDS011;68470;50.224;14.348;2023-04-23T11:25:13;5.90;;;3.13;;
79066;SDS011;68470;50.224;14.348;2023-04-23T11:27:44;3.45;;;2.60;;
79066;SDS011;68470;50.224;14.348;2023-04-23T11:30:14;4.38;;;2.42;;
79066;SDS011;68470;50.224;14.348;2023-04-23T11:32:46;4.20;;;2.80;;
79066;SDS011;68470;50.224;14.348;2023-04-23T11:35:14;4.65;;;2.58;;
79066;SDS011;68470;50.224;14.348;2023-04-23T11:37:41;4.30;;;3.00;;
79066;SDS011;68470;50.224;14.348;2023-04-23T11:40:09;6.13;;;3.90;;
79066;SDS011;68470;50.224;14.348;2023-04-23T11:42:45;7.15;;;3.67;;
79066;SDS011;68470;50.224;14.348;2023-04-23T11:47:42;6.03;;;3.60;;
79066;SDS011;68470;50.224;14.348;2023-04-23T11:50:08;6.47;;;3.80;;
79066;SDS011;68470;50.224;14.348;2023-04-23T11:52:34;8.95;;;3.72;;
79066;SDS011;68470;50.224;14.348;2023-04-23T11:55:06;5.80;;;2.72;;
79066;SDS011;68470;50.224;14.348;2023-04-23T11:57:36;4.68;;;2.75;;
79066;SDS011;68470;50.224;14.348;2023-04-23T12:00:14;5.07;;;3.22;;
79066;SDS011;68470;50.224;14.348;2023-04-23T12:02:59;4.82;;;3.03;;
79066;SDS011;68470;50.224;14.348;2023-04-23T12:05:27;5.60;;;3.05;;
79066;SDS011;68470;50.224;14.348;2023-04-23T12:08:17;3.80;;;2.45;;
79066;SDS011;68470;50.224;14.348;2023-04-23T12:10:45;3.08;;;2.40;;
79066;SDS011;68470;50.224;14.348;2023-04-23T12:13:16;4.10;;;2.40;;
79066;SDS011;68470;50.224;14.348;2023-04-23T12:15:44;5.18;;;2.60;;
79066;SDS011;68470;50.224;14.348;2023-04-23T12:18:14;4.53;;;2.50;;
79066;SDS011;68470;50.224;14.348;2023-04-23T12:20:41;3.70;;;2.22;;
79066;SDS011;68470;50.224;14.348;2023-04-23T12:23:07;2.83;;;1.83;;
79066;SDS011;68470;50.224;14.348;2023-04-23T12:25:33;4.38;;;2.17;;
79066;SDS011;68470;50.224;14.348;2023-04-23T12:28:00;3.15;;;2.08;;
79066;SDS011;68470;50.224;14.348;2023-04-23T12:30:31;4.03;;;2.90;;
79066;SDS011;68470;50.224;14.348;2023-04-23T12:33:01;3.42;;;1.83;;
79066;SDS011;68470;50.224;14.348;2023-04-23T12:35:36;3.70;;;2.03;;
79066;SDS011;68470;50.224;14.348;2023-04-23T12:38:21;5.22;;;3.28;;
79066;SDS011;68470;50.224;14.348;2023-04-23T12:40:49;8.98;;;4.43;;
79066;SDS011;68470;50.224;14.348;2023-04-23T12:43:15;3.88;;;2.63;;
79066;SDS011;68470;50.224;14.348;2023-04-23T12:45:41;3.30;;;2.25;;
79066;SDS011;68470;50.224;14.348;2023-04-23T12:48:07;3.22;;;2.20;;
79066;SDS011;68470;50.224;14.348;2023-04-23T12:50:33;3.08;;;2.08;;
79066;SDS011;68470;50.224;14.348;2023-04-23T12:52:59;5.38;;;3.00;;
79066;SDS011;68470;50.224;14.348;2023-04-23T12:55:25;4.20;;;2.35;;
79066;SDS011;68470;50.224;14.348;2023-04-23T12:57:50;3.42;;;1.90;;
79066;SDS011;68470;50.224;14.348;2023-04-23T13:00:16;2.97;;;1.73;;
79066;SDS011;68470;50.224;14.348;2023-04-23T13:02:42;2.95;;;2.13;;
79066;SDS011;68470;50.224;14.348;2023-04-23T13:05:08;4.13;;;2.05;;
79066;SDS011;68470;50.224;14.348;2023-04-23T13:07:34;3.97;;;1.75;;
79066;SDS011;68470;50.224;14.348;2023-04-23T13:10:00;4.25;;;1.92;;
79066;SDS011;68470;50.224;14.348;2023-04-23T13:12:25;4.07;;;1.90;;
79066;SDS011;68470;50.224;14.348;2023-04-23T13:14:51;2.97;;;1.70;;
79066;SDS011;68470;50.224;14.348;2023-04-23T13:17:17;4.28;;;2.47;;
79066;SDS011;68470;50.224;14.348;2023-04-23T13:19:44;3.05;;;2.00;;
79066;SDS011;68470;50.224;14.348;2023-04-23T13:22:10;3.00;;;2.13;;
79066;SDS011;68470;50.224;14.348;2023-04-23T13:24:36;4.00;;;2.63;;
79066;SDS011;68470;50.224;14.348;2023-04-23T13:27:01;6.47;;;2.58;;
79066;SDS011;68470;50.224;14.348;2023-04-23T13:29:27;20.02;;;8.32;;
79066;SDS011;68470;50.224;14.348;2023-04-23T13:31:54;10.18;;;3.70;;
79066;SDS011;68470;50.224;14.348;2023-04-23T13:34:20;13.10;;;4.70;;
79066;SDS011;68470;50.224;14.348;2023-04-23T13:36:46;7.13;;;3.03;;
79066;SDS011;68470;50.224;14.348;2023-04-23T13:39:12;5.15;;;3.88;;
79066;SDS011;68470;50.224;14.348;2023-04-23T13:41:39;11.40;;;5.05;;
79066;SDS011;68470;50.224;14.348;2023-04-23T13:44:05;14.07;;;5.05;;
79066;SDS011;68470;50.224;14.348;2023-04-23T13:46:31;15.98;;;8.05;;
79066;SDS011;68470;50.224;14.348;2023-04-23T13:48:57;11.27;;;5.43;;
79066;SDS011;68470;50.224;14.348;2023-04-23T13:51:22;9.30;;;3.60;;
79066;SDS011;68470;50.224;14.348;2023-04-23T13:53:48;8.27;;;3.58;;
79066;SDS011;68470;50.224;14.348;2023-04-23T13:56:14;9.32;;;4.13;;
79066;SDS011;68470;50.224;14.348;2023-04-23T13:58:40;10.00;;;4.43;;
79066;SDS011;68470;50.224;14.348;2023-04-23T14:01:10;8.68;;;4.82;;
79066;SDS011;68470;50.224;14.348;2023-04-23T14:03:37;4.80;;;2.83;;
79066;SDS011;68470;50.224;14.348;2023-04-23T14:06:03;3.38;;;1.88;;
79066;SDS011;68470;50.224;14.348;2023-04-23T14:08:29;4.30;;;2.17;;
79066;SDS011;68470;50.224;14.348;2023-04-23T14:10:55;54.92;;;16.33;;
79066;SDS011;68470;50.224;14.348;2023-04-23T14:13:21;40.90;;;14.15;;
79066;SDS011;68470;50.224;14.348;2023-04-23T14:15:47;29.42;;;11.48;;
79066;SDS011;68470;50.224;14.348;2023-04-23T14:18:13;12.05;;;5.53;;
79066;SDS011;68470;50.224;14.348;2023-04-23T14:20:38;4.57;;;3.00;;
79066;SDS011;68470;50.224;14.348;2023-04-23T14:25:57;3.30;;;2.50;;
79066;SDS011;68470;50.224;14.348;2023-04-23T14:28:34;4.40;;;2.53;;
79066;SDS011;68470;50.224;14.348;2023-04-23T14:31:05;6.00;;;3.10;;
79066;SDS011;68470;50.224;14.348;2023-04-23T14:33:31;4.47;;;2.00;;
79066;SDS011;68470;50.224;14.348;2023-04-23T14:35:57;4.50;;;2.00;;
79066;SDS011;68470;50.224;14.348;2023-04-23T14:38:23;4.15;;;3.00;;